TimeCDT,TemperatureF,Dew PointF,Humidity,Sea Level PressureIn,VisibilityMPH,Wind Direction,Wind SpeedMPH,Gust SpeedMPH,PrecipitationIn,Events,Conditions,WindDirDegrees,DateUTC
12:53 AM,48.0,42.1,80,30.14,10.0,SSW,5.8,-,N/A,,Clear,210,2013-09-14 05:53:00
1:53 AM,48.0,42.1,80,30.14,10.0,SSW,4.6,-,N/A,,Clear,210,2013-09-14 06:53:00
2:53 AM,46.9,42.1,83,30.15,10.0,Calm,Calm,-,N/A,,Clear,0,2013-09-14 07:53:00
3:53 AM,46.9,42.1,83,30.15,10.0,Calm,Calm,-,N/A,,Clear,0,2013-09-14 08:53:00
4:53 AM,46.9,42.1,83,30.15,10.0,SSW,3.5,-,N/A,,Clear,210,2013-09-14 09:53:00
5:53 AM,45.0,41.0,86,30.15,10.0,SSW,3.5,-,N/A,,Clear,210,2013-09-14 10:53:00
6:53 AM,48.0,41.0,77,30.17,10.0,Calm,Calm,-,N/A,,Clear,0,2013-09-14 11:53:00
7:53 AM,51.1,43.0,74,30.17,10.0,Variable,4.6,-,N/A,,Clear,0,2013-09-14 12:53:00
8:53 AM,55.9,45.0,67,30.15,10.0,SW,9.2,-,N/A,,Clear,220,2013-09-14 13:53:00
9:53 AM,59.0,46.0,62,30.16,10.0,Variable,4.6,-,N/A,,Clear,0,2013-09-14 14:53:00
10:53 AM,62.1,46.0,56,30.14,10.0,WSW,6.9,-,N/A,,Clear,250,2013-09-14 15:53:00
11:53 AM,64.9,45.0,48,30.12,10.0,SW,9.2,-,N/A,,Clear,220,2013-09-14 16:53:00
12:53 PM,66.9,43.0,42,30.09,10.0,SSW,11.5,-,N/A,,Clear,200,2013-09-14 17:53:00
1:53 PM,68.0,43.0,40,30.06,10.0,SW,8.1,-,N/A,,Clear,220,2013-09-14 18:53:00
2:53 PM,69.1,44.1,40,30.04,10.0,SSW,10.4,-,N/A,,Clear,210,2013-09-14 19:53:00
3:53 PM,69.1,45.0,42,30.03,10.0,SSW,11.5,18.4,N/A,,Clear,200,2013-09-14 20:53:00
4:53 PM,69.1,44.1,40,30.01,10.0,SSW,12.7,-,N/A,,Clear,200,2013-09-14 21:53:00
5:53 PM,66.9,45.0,45,30.01,10.0,South,8.1,-,N/A,,Clear,190,2013-09-14 22:53:00
6:53 PM,63.0,45.0,52,30.01,10.0,SSW,4.6,-,N/A,,Clear,200,2013-09-14 23:53:00
7:53 PM,61.0,46.0,58,30.01,10.0,SSW,3.5,-,N/A,,Clear,210,2013-09-15 00:53:00
8:53 PM,57.9,46.9,67,30.00,10.0,South,4.6,-,N/A,,Clear,180,2013-09-15 01:53:00
9:53 PM,57.9,48.0,70,29.99,10.0,South,5.8,-,N/A,,Clear,180,2013-09-15 02:53:00
10:53 PM,59.0,46.9,64,29.98,10.0,SSW,4.6,-,N/A,,Clear,200,2013-09-15 03:53:00
11:53 PM,59.0,46.9,64,29.99,10.0,South,4.6,-,N/A,,Clear,180,2013-09-15 04:53:00